Time;durP1;ratioP1;P1;durP2;ratioP2;P2;SDS_P1;SDS_P2;PMS_P1;PMS_P2;Temp;Humidity;BMP_temperature;BMP_pressure;BME280_temperature;BME280_humidity;BME280_pressure;Samples;Min_cycle;Max_cycle;Signal;HPM_P1;HPM_P2
2023/03/28 00:00:46;;;;;;;0.30;0.28;;;5.80;99.90;;;;;;5028005;28;20076;-80
2023/03/28 00:03:13;;;;;;;0.65;0.40;;;5.80;99.90;;;;;;5044692;28;20066;-79
2023/03/28 00:05:40;;;;;;;0.30;0.30;;;5.80;99.90;;;;;;5046348;28;20304;-80
2023/03/28 00:08:07;;;;;;;0.95;0.50;;;5.80;99.90;;;;;;5044465;28;20080;-80
2023/03/28 00:10:34;;;;;;;1.25;0.65;;;5.80;99.90;;;;;;5011208;28;20193;-80
2023/03/28 00:13:01;;;;;;;0.70;0.40;;;5.80;99.90;;;;;;5043245;28;20062;-80
2023/03/28 00:15:28;;;;;;;0.40;0.40;;;5.70;99.90;;;;;;5047026;28;20063;-80
2023/03/28 00:17:55;;;;;;;1.23;0.57;;;5.70;99.90;;;;;;5048173;28;20464;-79
2023/03/28 00:20:22;;;;;;;0.63;0.20;;;5.70;99.90;;;;;;5062233;28;20059;-82
2023/03/28 00:22:48;;;;;;;0.40;0.30;;;5.70;99.90;;;;;;5047266;28;20071;-82
2023/03/28 00:25:15;;;;;;;0.38;0.30;;;5.70;99.90;;;;;;5030394;28;20271;-82
2023/03/28 00:27:42;;;;;;;1.45;0.75;;;5.60;99.90;;;;;;5082013;28;20048;-82
2023/03/28 00:30:09;;;;;;;1.08;0.40;;;5.60;99.90;;;;;;5081524;28;20127;-82
2023/03/28 00:32:36;;;;;;;1.00;0.43;;;5.60;99.90;;;;;;5081825;28;20183;-81
2023/03/28 00:35:04;;;;;;;0.40;0.40;;;5.60;99.90;;;;;;5080269;28;20132;-82
2023/03/28 00:37:31;;;;;;;1.50;0.40;;;5.50;99.90;;;;;;5081649;28;20155;-82
2023/03/28 00:40:00;;;;;;;0.50;0.38;;;5.50;99.90;;;;;;5063684;28;20183;-82
2023/03/28 00:42:27;;;;;;;0.60;0.30;;;5.50;99.90;;;;;;5063647;28;20380;-82
2023/03/28 00:44:55;;;;;;;0.50;0.45;;;5.50;99.90;;;;;;5080788;28;20365;-80
2023/03/28 00:47:32;;;;;;;0.70;0.43;;;5.50;99.90;;;;;;5026946;28;20079;-81
2023/03/28 00:50:04;;;;;;;0.68;0.40;;;5.50;99.90;;;;;;5058316;28;20479;-81
2023/03/28 00:52:38;;;;;;;1.15;0.60;;;5.50;99.90;;;;;;5075603;28;20135;-80
2023/03/28 00:55:09;;;;;;;0.55;0.30;;;5.50;99.90;;;;;;5047261;28;20164;-81
2023/03/28 00:57:37;;;;;;;0.20;0.20;;;5.50;99.90;;;;;;5047495;28;20148;-81
2023/03/28 01:00:06;;;;;;;0.40;0.30;;;5.50;99.90;;;;;;5062962;28;20056;-80
2023/03/28 01:02:33;;;;;;;0.63;0.45;;;5.50;99.90;;;;;;5046507;28;20531;-80
2023/03/28 01:05:00;;;;;;;0.30;0.30;;;5.50;99.90;;;;;;5060806;28;20127;-80
2023/03/28 01:07:28;;;;;;;1.35;0.40;;;5.60;99.90;;;;;;5063099;28;20131;-80
2023/03/28 01:09:55;;;;;;;0.85;0.63;;;5.60;99.90;;;;;;5046357;28;20283;-81
2023/03/28 01:12:22;;;;;;;0.93;0.50;;;5.60;99.90;;;;;;5063443;28;20438;-80
2023/03/28 01:14:49;;;;;;;0.55;0.45;;;5.60;99.90;;;;;;5046303;28;20043;-80
2023/03/28 01:17:17;;;;;;;2.50;0.50;;;5.60;99.90;;;;;;5063359;28;20060;-80
2023/03/28 01:20:16;;;;;;;0.52;0.35;;;5.60;99.90;;;;;;5061691;28;20059;-80
2023/03/28 01:23:05;;;;;;;0.98;0.40;;;5.70;99.90;;;;;;5044812;28;20052;-80
2023/03/28 01:25:38;;;;;;;0.30;0.30;;;5.70;99.90;;;;;;5062320;28;20213;-81
2023/03/28 01:28:21;;;;;;;0.57;0.43;;;5.80;99.90;;;;;;5063233;28;20048;-80
2023/03/28 01:31:48;;;;;;;0.70;0.40;;;5.80;99.90;;;;;;5048250;28;20052;-80
2023/03/28 01:34:39;;;;;;;1.35;0.40;;;5.80;99.90;;;;;;5013029;28;20500;-80
2023/03/28 01:37:31;;;;;;;0.95;0.43;;;5.90;99.90;;;;;;5015669;28;20073;-80
2023/03/28 01:40:20;;;;;;;0.57;0.40;;;5.80;99.90;;;;;;5061524;28;20075;-80
2023/03/28 01:43:09;;;;;;;0.20;0.20;;;5.80;99.90;;;;;;5084252;28;20047;-80
2023/03/28 01:45:39;;;;;;;0.60;0.40;;;5.80;99.90;;;;;;5069095;28;20043;-80
2023/03/28 01:48:08;;;;;;;0.43;0.30;;;5.80;99.90;;;;;;5078480;28;20089;-80
2023/03/28 01:50:40;;;;;;;1.13;0.50;;;5.80;99.90;;;;;;5067365;28;20048;-80
2023/03/28 01:53:25;;;;;;;0.63;0.40;;;5.80;99.90;;;;;;5052100;28;20140;-80
2023/03/28 01:56:04;;;;;;;0.40;0.30;;;5.80;99.90;;;;;;5053945;28;20044;-80
2023/03/28 01:58:57;;;;;;;0.40;0.40;;;5.70;99.90;;;;;;5086704;28;20552;-80
2023/03/28 02:01:29;;;;;;;0.80;0.50;;;5.80;99.90;;;;;;5071002;28;20052;-80
2023/03/28 02:03:59;;;;;;;0.38;0.28;;;5.70;99.90;;;;;;5048987;28;20068;-80
2023/03/28 02:06:26;;;;;;;0.68;0.40;;;5.70;99.90;;;;;;5046774;28;20048;-80
2023/03/28 02:08:54;;;;;;;0.47;0.30;;;5.70;99.90;;;;;;5068652;28;20131;-81
2023/03/28 02:11:21;;;;;;;0.93;0.50;;;5.70;99.90;;;;;;5051717;28;20078;-80
2023/03/28 02:13:52;;;;;;;0.75;0.50;;;5.70;99.90;;;;;;5068387;28;20248;-80
2023/03/28 02:16:20;;;;;;;0.60;0.30;;;5.70;99.90;;;;;;5052278;28;20054;-80
2023/03/28 02:18:54;;;;;;;0.52;0.30;;;5.70;99.90;;;;;;5068871;28;20593;-80
2023/03/28 02:21:27;;;;;;;0.43;0.32;;;5.70;99.90;;;;;;5050626;28;20044;-80
2023/03/28 02:23:53;;;;;;;0.60;0.40;;;5.70;99.90;;;;;;5041300;28;20154;-80
2023/03/28 02:26:21;;;;;;;0.43;0.40;;;5.70;99.90;;;;;;5051411;28;20127;-80
2023/03/28 02:28:49;;;;;;;1.02;0.40;;;5.80;99.90;;;;;;5051835;28;20077;-80
2023/03/28 02:31:16;;;;;;;0.45;0.43;;;5.80;99.90;;;;;;5047450;28;20052;-80
2023/03/28 02:33:44;;;;;;;0.35;0.32;;;5.70;99.90;;;;;;5051115;28;20076;-81
2023/03/28 02:36:17;;;;;;;0.60;0.40;;;5.70;99.90;;;;;;5046774;28;20075;-80
2023/03/28 02:38:50;;;;;;;0.40;0.40;;;5.70;99.90;;;;;;5065503;28;20051;-80
2023/03/28 02:41:31;;;;;;;0.40;0.40;;;5.60;99.90;;;;;;5065433;28;20110;-79
2023/03/28 02:44:13;;;;;;;0.50;0.43;;;5.60;99.90;;;;;;5057263;28;20143;-80
2023/03/28 02:47:20;;;;;;;2.47;0.40;;;5.60;99.90;;;;;;5068291;28;20097;-80
2023/03/28 02:50:05;;;;;;;0.50;0.43;;;5.60;99.90;;;;;;5049788;28;20131;-80
2023/03/28 02:52:49;;;;;;;0.40;0.30;;;5.60;99.90;;;;;;5085362;28;20063;-80
2023/03/28 02:55:37;;;;;;;0.30;0.30;;;5.50;99.90;;;;;;5088164;28;20051;-80
2023/03/28 02:58:38;;;;;;;0.30;0.30;;;5.50;99.90;;;;;;5089991;28;20079;-80
2023/03/28 03:01:09;;;;;;;0.38;0.38;;;5.50;99.90;;;;;;5054082;28;20123;-80
2023/03/28 03:03:36;;;;;;;0.30;0.30;;;5.40;99.90;;;;;;5055849;28;20052;-79
2023/03/28 03:06:04;;;;;;;0.50;0.40;;;5.50;99.90;;;;;;5053280;28;20055;-79
2023/03/28 03:08:31;;;;;;;0.55;0.22;;;5.50;99.90;;;;;;5087822;28;20054;-80
2023/03/28 03:10:57;;;;;;;0.63;0.40;;;5.50;99.90;;;;;;5054926;28;20404;-80
2023/03/28 03:13:24;;;;;;;0.80;0.38;;;5.50;99.90;;;;;;5054922;28;20040;-80
2023/03/28 03:15:53;;;;;;;0.73;0.38;;;5.50;99.90;;;;;;5071621;28;20121;-80
2023/03/28 03:18:20;;;;;;;0.65;0.50;;;5.50;99.90;;;;;;5038527;28;20109;-80
2023/03/28 03:20:49;;;;;;;0.80;0.47;;;5.50;99.90;;;;;;5053675;28;20059;-80
2023/03/28 03:23:16;;;;;;;0.40;0.40;;;5.50;99.90;;;;;;5071450;28;20083;-80
2023/03/28 03:25:44;;;;;;;0.32;0.22;;;5.50;99.90;;;;;;5071029;28;20050;-79
2023/03/28 03:28:11;;;;;;;0.73;0.30;;;5.60;99.90;;;;;;5071526;28;20457;-80
2023/03/28 03:30:38;;;;;;;0.95;0.60;;;5.60;99.90;;;;;;5052831;28;20074;-80
2023/03/28 03:33:09;;;;;;;0.38;0.38;;;5.60;99.90;;;;;;5051996;28;20721;-79
2023/03/28 03:35:36;;;;;;;1.25;0.52;;;5.70;99.90;;;;;;5070392;28;20043;-80
2023/03/28 03:38:03;;;;;;;0.52;0.40;;;5.70;99.90;;;;;;5070614;28;20040;-80
2023/03/28 03:40:30;;;;;;;0.85;0.30;;;5.70;99.90;;;;;;5054437;28;20131;-80
2023/03/28 03:42:57;;;;;;;1.20;0.45;;;5.70;99.90;;;;;;5071194;28;20052;-80
2023/03/28 03:45:24;;;;;;;1.38;0.50;;;5.70;99.90;;;;;;5054266;28;20372;-80
2023/03/28 03:47:51;;;;;;;1.85;0.52;;;5.70;99.90;;;;;;5070813;28;20151;-80
2023/03/28 03:50:18;;;;;;;0.57;0.30;;;5.80;99.90;;;;;;5052961;28;20072;-80
2023/03/28 03:52:45;;;;;;;0.55;0.40;;;5.70;99.90;;;;;;5088227;28;20076;-80
2023/03/28 03:55:13;;;;;;;1.02;0.60;;;5.80;99.90;;;;;;5088400;28;20067;-81
2023/03/28 03:57:41;;;;;;;0.73;0.45;;;5.80;99.90;;;;;;5054326;28;20075;-80
2023/03/28 04:00:11;;;;;;;1.05;0.50;;;5.80;99.90;;;;;;5053539;28;20117;-80
2023/03/28 04:02:38;;;;;;;0.70;0.57;;;5.80;99.90;;;;;;5055129;28;20044;-80
2023/03/28 04:05:08;;;;;;;0.88;0.50;;;5.90;99.90;;;;;;5035329;28;20048;-81
2023/03/28 04:07:35;;;;;;;0.55;0.40;;;5.90;99.90;;;;;;5070410;28;20072;-81
2023/03/28 04:10:02;;;;;;;1.42;0.73;;;5.90;99.90;;;;;;5053254;28;20410;-81
2023/03/28 04:12:29;;;;;;;1.38;0.45;;;6.00;99.90;;;;;;5054352;28;20131;-80
2023/03/28 04:14:56;;;;;;;1.30;0.50;;;6.10;99.90;;;;;;5053149;28;20055;-81
2023/03/28 04:17:28;;;;;;;1.40;0.55;;;6.10;99.90;;;;;;5054097;28;20247;-81
2023/03/28 04:19:56;;;;;;;0.65;0.35;;;6.10;99.90;;;;;;5049266;28;20102;-80
2023/03/28 04:22:22;;;;;;;1.52;0.50;;;6.20;99.90;;;;;;5033450;28;20044;-81
2023/03/28 04:24:52;;;;;;;0.60;0.40;;;6.20;99.90;;;;;;5047525;28;20052;-80
2023/03/28 04:27:19;;;;;;;1.63;0.55;;;6.20;99.90;;;;;;5070377;28;20085;-79
2023/03/28 04:29:45;;;;;;;1.42;0.52;;;6.20;99.90;;;;;;5083852;28;20160;-79
2023/03/28 04:32:12;;;;;;;2.22;0.40;;;6.30;99.90;;;;;;5068977;28;20054;-79
2023/03/28 04:34:39;;;;;;;0.73;0.45;;;6.40;99.90;;;;;;5068680;28;20116;-78
2023/03/28 04:37:07;;;;;;;0.70;0.50;;;6.30;99.90;;;;;;5068291;28;20060;-79
2023/03/28 04:39:34;;;;;;;0.93;0.57;;;6.40;99.90;;;;;;5051614;28;20500;-80
2023/03/28 04:42:04;;;;;;;1.20;0.73;;;6.40;99.90;;;;;;5050913;28;20070;-79
2023/03/28 04:44:31;;;;;;;0.77;0.40;;;6.40;99.90;;;;;;5083049;28;20055;-80
2023/03/28 04:46:58;;;;;;;0.63;0.45;;;6.50;99.90;;;;;;5053916;28;20056;-82
2023/03/28 04:49:25;;;;;;;0.85;0.55;;;6.50;99.90;;;;;;5048929;28;20475;-79
2023/03/28 04:51:52;;;;;;;0.82;0.30;;;6.50;99.90;;;;;;5065811;28;20499;-80
2023/03/28 04:54:19;;;;;;;0.57;0.50;;;6.50;99.90;;;;;;5067769;28;20058;-80
2023/03/28 04:56:49;;;;;;;0.73;0.50;;;6.60;99.90;;;;;;5067135;28;20067;-78
2023/03/28 04:59:16;;;;;;;1.25;0.60;;;6.60;99.90;;;;;;5050840;28;20048;-79
2023/03/28 05:01:47;;;;;;;0.77;0.50;;;6.60;99.90;;;;;;5056259;28;20119;-78
2023/03/28 05:04:18;;;;;;;1.10;0.73;;;6.70;99.90;;;;;;5058915;28;20096;-79
2023/03/28 05:06:45;;;;;;;1.00;0.50;;;6.70;99.90;;;;;;5042627;28;20055;-79
2023/03/28 05:09:13;;;;;;;1.50;0.50;;;6.70;99.90;;;;;;5044952;28;20495;-78
2023/03/28 05:11:39;;;;;;;1.52;0.50;;;6.70;99.90;;;;;;5032026;28;20199;-79
2023/03/28 05:14:06;;;;;;;0.85;0.65;;;6.80;99.90;;;;;;5045492;28;20125;-80
2023/03/28 05:16:33;;;;;;;2.42;1.17;;;6.80;99.90;;;;;;5047805;28;20147;-80
2023/03/28 05:19:00;;;;;;;1.02;0.70;;;6.80;99.90;;;;;;5062105;28;20136;-80
2023/03/28 05:21:27;;;;;;;0.57;0.50;;;6.90;99.90;;;;;;5062001;28;20048;-80
2023/03/28 05:23:54;;;;;;;1.55;0.55;;;6.90;99.90;;;;;;5059939;28;20055;-78
2023/03/28 05:26:21;;;;;;;1.08;0.52;;;6.90;99.90;;;;;;5084129;28;20056;-79
2023/03/28 05:28:47;;;;;;;1.52;0.60;;;6.90;99.90;;;;;;5045703;28;20139;-80
2023/03/28 05:31:16;;;;;;;2.83;1.17;;;6.90;99.90;;;;;;5055011;28;20139;-79
2023/03/28 05:33:42;;;;;;;1.42;0.63;;;6.90;99.90;;;;;;5074429;28;20391;-80
2023/03/28 05:36:09;;;;;;;1.55;0.57;;;7.00;99.90;;;;;;5042164;28;20421;-79
2023/03/28 05:38:36;;;;;;;0.60;0.47;;;7.00;99.90;;;;;;5060267;28;20143;-80
2023/03/28 05:41:03;;;;;;;1.30;0.63;;;7.00;99.90;;;;;;5043664;28;20081;-80
2023/03/28 05:43:30;;;;;;;1.35;0.60;;;7.00;99.90;;;;;;5041056;28;20054;-82
2023/03/28 05:45:57;;;;;;;0.70;0.50;;;7.00;99.90;;;;;;5042440;28;20076;-81
2023/03/28 05:48:24;;;;;;;1.38;0.70;;;6.90;99.90;;;;;;5047745;28;20105;-80
2023/03/28 05:50:51;;;;;;;1.77;0.63;;;6.90;99.90;;;;;;5059099;28;20036;-80
2023/03/28 05:53:19;;;;;;;1.27;0.60;;;6.80;99.90;;;;;;5076880;28;20073;-81
2023/03/28 05:55:45;;;;;;;1.80;0.60;;;6.80;99.90;;;;;;5039803;28;20140;-79
2023/03/28 05:58:12;;;;;;;2.30;1.00;;;6.80;99.90;;;;;;5059677;28;20101;-80
2023/03/28 06:00:40;;;;;;;1.08;0.85;;;6.70;99.90;;;;;;5024801;28;20182;-80
2023/03/28 06:03:08;;;;;;;1.60;0.68;;;6.70;99.90;;;;;;5026833;28;20048;-80
2023/03/28 06:05:42;;;;;;;1.30;0.50;;;6.70;99.90;;;;;;5065320;28;20062;-80
2023/03/28 06:08:09;;;;;;;0.80;0.60;;;6.70;99.90;;;;;;5037067;28;20048;-80
2023/03/28 06:10:36;;;;;;;1.40;0.88;;;6.70;99.90;;;;;;5042164;28;20416;-80
2023/03/28 06:13:02;;;;;;;2.20;1.00;;;6.70;99.90;;;;;;5036940;28;20056;-80
2023/03/28 06:15:29;;;;;;;2.10;0.80;;;6.60;99.90;;;;;;5022749;28;20049;-81
2023/03/28 06:17:56;;;;;;;1.73;0.70;;;6.60;99.90;;;;;;5038383;28;20084;-80
2023/03/28 06:20:23;;;;;;;1.48;0.60;;;6.60;99.90;;;;;;5055128;28;20302;-80
2023/03/28 06:22:50;;;;;;;1.90;0.90;;;6.50;99.90;;;;;;5039616;28;20056;-80
2023/03/28 06:25:17;;;;;;;1.50;0.60;;;6.50;99.90;;;;;;5074978;28;20102;-80
2023/03/28 06:27:44;;;;;;;1.63;0.73;;;6.50;99.90;;;;;;5057710;28;20048;-80
2023/03/28 06:30:12;;;;;;;0.98;0.50;;;6.50;99.90;;;;;;5062933;28;20080;-80
2023/03/28 06:32:38;;;;;;;1.10;1.00;;;6.50;99.90;;;;;;5078397;28;20051;-79
2023/03/28 06:35:07;;;;;;;2.42;1.10;;;6.50;99.90;;;;;;5060455;28;20048;-86
2023/03/28 06:37:34;;;;;;;1.27;0.73;;;6.50;99.90;;;;;;5077597;28;20117;-81
2023/03/28 06:40:02;;;;;;;1.65;0.73;;;6.50;99.90;;;;;;5058607;28;20067;-80
2023/03/28 06:42:29;;;;;;;1.10;0.70;;;6.50;99.90;;;;;;5076389;28;20590;-80
2023/03/28 06:44:56;;;;;;;1.58;0.95;;;6.60;99.90;;;;;;5062346;28;20226;-79
2023/03/28 06:47:23;;;;;;;1.58;0.82;;;6.60;99.90;;;;;;5056519;28;20052;-79
2023/03/28 06:49:50;;;;;;;1.63;0.80;;;6.70;99.90;;;;;;5061219;28;20052;-80
2023/03/28 06:52:17;;;;;;;2.58;0.90;;;6.80;99.90;;;;;;5061843;28;20088;-80
2023/03/28 06:54:44;;;;;;;1.45;0.85;;;6.80;99.90;;;;;;5061585;28;20515;-80
2023/03/28 06:57:14;;;;;;;2.15;0.85;;;6.80;99.90;;;;;;5046561;28;20101;-80
2023/03/28 06:59:41;;;;;;;1.08;0.65;;;6.90;99.90;;;;;;5062354;28;20048;-79
2023/03/28 07:02:11;;;;;;;1.65;0.70;;;6.90;99.90;;;;;;5062029;28;20118;-80
2023/03/28 07:04:38;;;;;;;2.42;0.85;;;6.90;99.90;;;;;;5061848;28;20287;-79
2023/03/28 07:07:06;;;;;;;2.50;0.95;;;6.90;99.90;;;;;;5066716;28;20109;-80
2023/03/28 07:09:34;;;;;;;1.20;0.52;;;7.00;99.90;;;;;;5048566;28;20039;-79
2023/03/28 07:12:01;;;;;;;4.63;1.33;;;7.00;99.90;;;;;;5045734;28;20470;-80
2023/03/28 07:14:27;;;;;;;1.95;0.77;;;7.10;99.90;;;;;;5048437;28;20063;-79
2023/03/28 07:16:54;;;;;;;1.27;0.80;;;7.20;99.90;;;;;;5051055;28;20505;-83
2023/03/28 07:19:22;;;;;;;1.48;0.77;;;7.30;99.90;;;;;;5076470;28;20056;-80
2023/03/28 07:21:49;;;;;;;2.10;0.57;;;7.30;99.90;;;;;;5056556;28;20044;-80
2023/03/28 07:24:19;;;;;;;2.40;0.90;;;7.30;99.90;;;;;;5044120;28;20562;-80
2023/03/28 07:26:45;;;;;;;1.52;0.80;;;7.40;99.90;;;;;;5042520;28;20048;-80
2023/03/28 07:29:12;;;;;;;1.05;0.63;;;7.40;99.90;;;;;;5077174;28;20074;-79
2023/03/28 07:31:39;;;;;;;0.88;0.70;;;7.40;99.90;;;;;;5043206;28;20052;-80
2023/03/28 07:34:06;;;;;;;1.02;0.60;;;7.50;99.90;;;;;;5079627;28;20071;-80
2023/03/28 07:36:33;;;;;;;1.02;0.60;;;7.60;99.90;;;;;;5023690;28;20057;-79
2023/03/28 07:39:00;;;;;;;0.95;0.70;;;7.60;99.90;;;;;;5063021;28;20505;-80
2023/03/28 07:41:27;;;;;;;1.33;0.60;;;7.70;99.90;;;;;;5040180;28;20166;-80
2023/03/28 07:43:54;;;;;;;1.10;0.60;;;7.70;99.90;;;;;;5054628;28;20052;-80
2023/03/28 07:46:22;;;;;;;1.50;0.85;;;7.80;99.90;;;;;;5065181;28;20127;-80
2023/03/28 07:48:49;;;;;;;1.55;0.80;;;7.80;99.90;;;;;;5045435;28;20412;-80
2023/03/28 07:51:18;;;;;;;1.90;0.80;;;7.90;99.90;;;;;;5077372;28;20093;-79
2023/03/28 07:53:45;;;;;;;1.75;0.95;;;8.00;99.90;;;;;;5061358;28;20411;-80
2023/03/28 07:56:12;;;;;;;1.52;0.80;;;8.10;99.90;;;;;;5061471;28;20081;-79
2023/03/28 07:58:39;;;;;;;1.25;0.98;;;8.10;99.90;;;;;;5045076;28;20479;-79
2023/03/28 08:01:08;;;;;;;1.50;0.80;;;8.10;99.90;;;;;;5044907;28;20482;-80
2023/03/28 08:03:35;;;;;;;1.27;0.85;;;8.20;99.90;;;;;;5024548;28;20485;-80
2023/03/28 08:06:04;;;;;;;1.50;0.80;;;8.20;99.90;;;;;;5063052;28;20055;-80
2023/03/28 08:08:39;;;;;;;0.90;0.73;;;8.30;99.90;;;;;;5047376;28;20397;-80
2023/03/28 08:11:06;;;;;;;2.08;0.88;;;8.30;99.90;;;;;;5061303;28;20556;-79
2023/03/28 08:13:33;;;;;;;2.63;0.70;;;8.40;99.90;;;;;;5061381;28;20052;-79
2023/03/28 08:16:00;;;;;;;1.85;0.90;;;8.40;99.90;;;;;;5044499;28;20095;-80
2023/03/28 08:18:27;;;;;;;1.10;0.82;;;8.50;99.90;;;;;;5057879;28;20647;-80
2023/03/28 08:21:00;;;;;;;2.35;1.08;;;8.50;99.90;;;;;;5048842;28;20525;-79
2023/03/28 08:23:28;;;;;;;1.58;0.90;;;8.60;99.90;;;;;;5053975;28;20211;-79
2023/03/28 08:26:03;;;;;;;1.52;0.82;;;8.70;99.90;;;;;;5057475;28;20127;-80
2023/03/28 08:28:35;;;;;;;0.95;0.60;;;8.70;99.90;;;;;;5045826;28;20088;-78
2023/03/28 08:31:13;;;;;;;1.27;0.65;;;8.80;99.90;;;;;;5063549;28;20101;-79
2023/03/28 08:33:41;;;;;;;1.10;0.65;;;8.80;99.90;;;;;;5065294;28;20048;-79
2023/03/28 08:36:08;;;;;;;1.25;0.70;;;9.00;99.90;;;;;;5081026;28;20040;-80
2023/03/28 08:38:36;;;;;;;1.95;0.90;;;9.00;99.90;;;;;;5047609;28;20505;-80
2023/03/28 08:41:21;;;;;;;1.63;0.65;;;9.00;99.90;;;;;;5067443;28;20079;-79
2023/03/28 08:43:54;;;;;;;1.88;0.98;;;9.00;99.90;;;;;;5052211;28;20050;-79
2023/03/28 08:46:21;;;;;;;;;;;9.00;99.90;;;;;;5064168;28;20451;-80
2023/03/28 08:48:48;;;;;;;1.63;0.70;;;9.10;99.90;;;;;;5079871;28;20011;-79
2023/03/28 08:51:24;;;;;;;0.57;0.50;;;9.10;99.90;;;;;;5032478;28;20051;-79
2023/03/28 08:54:12;;;;;;;1.25;0.70;;;9.20;99.90;;;;;;5067030;28;20055;-80
2023/03/28 08:56:46;;;;;;;2.03;0.90;;;9.30;99.90;;;;;;5084180;28;20083;-80
2023/03/28 08:59:18;;;;;;;1.35;0.70;;;9.40;99.90;;;;;;5050917;28;20093;-79
2023/03/28 09:01:46;;;;;;;1.63;0.73;;;9.40;99.90;;;;;;5046436;28;20129;-79
2023/03/28 09:04:33;;;;;;;1.40;0.90;;;9.60;99.90;;;;;;5065491;28;20048;-79
2023/03/28 09:07:11;;;;;;;0.93;0.55;;;9.60;99.90;;;;;;5061058;28;20047;-79
2023/03/28 09:09:48;;;;;;;2.05;0.90;;;9.50;99.90;;;;;;5055470;28;20052;-80
2023/03/28 09:12:50;;;;;;;1.08;0.63;;;9.50;99.90;;;;;;5063318;28;20131;-81
2023/03/28 09:15:29;;;;;;;2.15;0.90;;;9.50;99.90;;;;;;5059952;28;20111;-80
2023/03/28 09:18:21;;;;;;;1.63;0.70;;;9.40;99.90;;;;;;5054130;28;20055;-80
2023/03/28 09:21:18;;;;;;;1.25;0.52;;;9.30;99.90;;;;;;5061414;28;20080;-80
2023/03/28 09:24:22;;;;;;;1.23;0.73;;;9.30;99.90;;;;;;5059531;28;20444;-80
2023/03/28 09:27:19;;;;;;;0.50;0.40;;;9.20;99.90;;;;;;5077205;28;20074;-80
2023/03/28 09:29:46;;;;;;;1.27;0.70;;;9.30;99.90;;;;;;5023269;28;20097;-79
2023/03/28 09:32:21;;;;;;;1.15;0.70;;;9.40;99.90;;;;;;5048885;28;20106;-80
2023/03/28 09:34:49;;;;;;;1.40;0.93;;;9.40;99.90;;;;;;5045018;28;20044;-80
2023/03/28 09:37:28;;;;;;;1.40;0.68;;;9.40;99.90;;;;;;5046377;28;20055;-80
2023/03/28 09:39:58;;;;;;;2.40;0.80;;;9.50;99.90;;;;;;5065523;28;20081;-80
2023/03/28 09:43:10;;;;;;;1.45;0.60;;;9.60;99.90;;;;;;5066314;28;20040;-80
2023/03/28 09:46:01;;;;;;;0.88;0.60;;;9.50;99.90;;;;;;5038881;28;20048;-81
2023/03/28 09:48:32;;;;;;;1.35;0.63;;;9.50;99.90;;;;;;5004692;28;20136;-80
2023/03/28 09:51:00;;;;;;;1.40;0.80;;;9.60;99.90;;;;;;5032778;28;20052;-80
2023/03/28 09:53:36;;;;;;;2.45;1.00;;;9.60;99.90;;;;;;5064780;28;20060;-80
2023/03/28 09:56:10;;;;;;;3.38;0.98;;;9.60;99.90;;;;;;5049364;28;20051;-80
2023/03/28 09:58:45;;;;;;;;;;;9.60;99.90;;;;;;5084544;28;20056;-81
2023/03/28 10:01:34;;;;;;;1.88;0.90;;;9.60;99.90;;;;;;5065365;28;19924;-80
2023/03/28 10:04:01;;;;;;;1.58;0.85;;;9.50;99.90;;;;;;5050591;28;20089;-80
2023/03/28 10:06:30;;;;;;;1.90;0.70;;;9.40;99.90;;;;;;5044622;28;20413;-80
2023/03/28 10:09:18;;;;;;;1.90;0.82;;;9.40;99.90;;;;;;5044438;28;20237;-80
2023/03/28 10:11:49;;;;;;;2.90;0.90;;;9.40;99.90;;;;;;5043310;28;20062;-81
2023/03/28 10:14:35;;;;;;;1.70;0.70;;;9.30;99.90;;;;;;5077447;28;20083;-81
2023/03/28 10:17:05;;;;;;;3.08;0.90;;;9.20;99.90;;;;;;5061360;28;20135;-81
2023/03/28 10:19:34;;;;;;;2.78;1.00;;;9.10;99.90;;;;;;5050624;28;20127;-80
2023/03/28 10:22:11;;;;;;;3.13;1.02;;;9.10;99.90;;;;;;5044235;28;20052;-81
2023/03/28 10:24:38;;;;;;;1.85;0.73;;;9.00;99.90;;;;;;5046096;28;20047;-80
2023/03/28 10:27:22;;;;;;;2.17;1.10;;;8.90;99.90;;;;;;5046301;28;20059;-80
2023/03/28 10:29:55;;;;;;;4.57;1.95;;;8.80;99.90;;;;;;5045319;28;20060;-81
2023/03/28 10:32:26;;;;;;;3.10;1.08;;;8.60;99.90;;;;;;5052729;28;20047;-81
2023/03/28 10:35:02;;;;;;;3.22;1.30;;;8.50;99.90;;;;;;5047289;28;20499;-80
2023/03/28 10:37:30;;;;;;;2.25;1.13;;;8.40;99.90;;;;;;5049371;28;20286;-79
2023/03/28 10:40:21;;;;;;;1.73;0.95;;;8.30;99.90;;;;;;5049007;28;20113;-78
2023/03/28 10:42:51;;;;;;;3.80;1.20;;;8.30;99.90;;;;;;5065870;28;20526;-78
2023/03/28 10:45:23;;;;;;;3.35;1.77;;;8.20;99.90;;;;;;5048885;28;20443;-78
2023/03/28 10:47:51;;;;;;;3.95;1.23;;;8.30;99.90;;;;;;5065910;28;20054;-79
2023/03/28 10:50:35;;;;;;;4.72;1.40;;;8.30;99.90;;;;;;5047560;28;20352;-79
2023/03/28 10:53:30;;;;;;;1.98;1.05;;;8.30;99.90;;;;;;5065389;28;20052;-79
2023/03/28 10:56:13;;;;;;;3.60;0.98;;;8.40;99.90;;;;;;5082982;28;20048;-79
2023/03/28 10:58:43;;;;;;;2.08;1.00;;;8.40;99.90;;;;;;5059142;28;20048;-79
2023/03/28 11:01:19;;;;;;;3.65;0.93;;;8.50;99.90;;;;;;5083621;28;20201;-79
2023/03/28 11:04:03;;;;;;;1.52;0.70;;;8.70;99.90;;;;;;5047048;28;20572;-79
2023/03/28 11:06:39;;;;;;;1.20;0.85;;;8.70;99.90;;;;;;5051414;28;20356;-80
2023/03/28 11:09:13;;;;;;;4.45;1.13;;;8.60;99.90;;;;;;5064667;28;20287;-80
2023/03/28 11:12:06;;;;;;;2.28;0.88;;;8.60;99.90;;;;;;5048789;28;20049;-80
2023/03/28 11:14:48;;;;;;;1.45;0.82;;;8.50;99.90;;;;;;5051611;28;20274;-80
2023/03/28 11:17:38;;;;;;;2.22;1.05;;;8.50;99.90;;;;;;5087117;28;20048;-80
2023/03/28 11:20:16;;;;;;;1.48;0.70;;;8.50;99.90;;;;;;5036338;28;20044;-80
2023/03/28 11:23:18;;;;;;;1.48;0.43;;;8.60;99.90;;;;;;5068979;28;20508;-80
2023/03/28 11:25:53;;;;;;;1.02;0.65;;;8.70;99.90;;;;;;5068877;28;20055;-80
2023/03/28 11:28:44;;;;;;;0.93;0.50;;;8.70;99.90;;;;;;5049734;28;20048;-80
2023/03/28 11:31:16;;;;;;;2.83;0.98;;;8.80;99.90;;;;;;5070421;28;20369;-80
2023/03/28 11:34:04;;;;;;;2.88;0.70;;;8.70;99.90;;;;;;5062278;28;20059;-79
2023/03/28 11:37:09;;;;;;;0.82;0.40;;;8.60;99.90;;;;;;5085394;28;20074;-79
2023/03/28 11:39:41;;;;;;;1.75;0.73;;;8.60;99.90;;;;;;5086145;28;20549;-79
2023/03/28 11:42:38;;;;;;;1.50;0.70;;;8.60;99.90;;;;;;5068745;28;20052;-79
2023/03/28 11:45:29;;;;;;;1.88;0.85;;;8.50;99.90;;;;;;5063588;28;20117;-79
2023/03/28 11:48:23;;;;;;;2.03;0.57;;;8.50;99.90;;;;;;5058958;28;20470;-79
2023/03/28 11:51:04;;;;;;;0.73;0.45;;;8.40;99.90;;;;;;5067191;28;20059;-79
2023/03/28 11:53:34;;;;;;;1.92;0.60;;;8.40;99.90;;;;;;5085552;28;20462;-81
2023/03/28 11:56:05;;;;;;;1.73;0.70;;;8.30;99.90;;;;;;5048483;28;20052;-80
2023/03/28 11:58:33;;;;;;;0.82;0.50;;;8.20;99.90;;;;;;5048418;28;20518;-79
2023/03/28 12:01:01;;;;;;;0.95;0.50;;;8.20;99.90;;;;;;5051618;28;20075;-80
2023/03/28 12:03:45;;;;;;;2.38;0.63;;;8.20;99.90;;;;;;5078310;28;20044;-81
2023/03/28 12:06:30;;;;;;;2.22;0.52;;;8.10;99.90;;;;;;5051311;28;20055;-80
2023/03/28 12:09:16;;;;;;;1.60;0.80;;;8.00;99.90;;;;;;5041945;28;20044;-80
2023/03/28 12:11:57;;;;;;;1.38;0.82;;;8.00;99.90;;;;;;5050918;28;20048;-81
2023/03/28 12:14:29;;;;;;;0.80;0.60;;;8.10;99.90;;;;;;5064123;28;20067;-80
2023/03/28 12:16:57;;;;;;;0.52;0.40;;;8.10;99.90;;;;;;5067331;28;20475;-80
2023/03/28 12:19:33;;;;;;;1.45;0.80;;;8.10;99.90;;;;;;5063944;28;20082;-80
2023/03/28 12:22:04;;;;;;;1.05;0.60;;;8.20;99.90;;;;;;5053692;28;20040;-80
2023/03/28 12:24:42;;;;;;;0.98;0.55;;;8.30;99.90;;;;;;5064697;28;20079;-80
2023/03/28 12:27:51;;;;;;;0.68;0.57;;;8.50;99.90;;;;;;5060374;28;20519;-80
2023/03/28 12:30:28;;;;;;;1.23;0.57;;;8.60;99.90;;;;;;5065826;28;20116;-80
2023/03/28 12:32:58;;;;;;;1.25;0.70;;;8.60;99.90;;;;;;5062293;28;20083;-80
2023/03/28 12:35:34;;;;;;;1.42;0.70;;;8.70;99.90;;;;;;5066817;28;20441;-80
2023/03/28 12:38:08;;;;;;;1.42;0.95;;;8.70;99.90;;;;;;5067972;28;20060;-79
2023/03/28 12:40:54;;;;;;;1.83;0.50;;;8.80;99.90;;;;;;5066646;28;20394;-80
2023/03/28 12:43:42;;;;;;;1.15;0.68;;;8.80;99.90;;;;;;5050915;28;20064;-80
2023/03/28 12:46:10;;;;;;;0.80;0.65;;;8.70;99.90;;;;;;5053876;28;20079;-80
2023/03/28 12:48:50;;;;;;;0.70;0.50;;;8.80;99.90;;;;;;5050008;28;20143;-80
2023/03/28 12:51:35;;;;;;;2.20;1.23;;;8.90;99.90;;;;;;5050326;28;20063;-80
2023/03/28 12:54:30;;;;;;;1.00;0.50;;;9.00;99.90;;;;;;5041811;28;20133;-80
2023/03/28 12:57:00;;;;;;;1.33;0.50;;;9.00;99.90;;;;;;5069061;28;20052;-80
2023/03/28 12:59:39;;;;;;;0.90;0.50;;;9.00;99.90;;;;;;5056547;28;20121;-80
2023/03/28 13:02:17;;;;;;;1.42;0.70;;;9.00;99.90;;;;;;5081085;28;20066;-80
2023/03/28 13:04:51;;;;;;;1.70;0.60;;;9.00;99.90;;;;;;5079624;28;20055;-79
2023/03/28 13:07:47;;;;;;;1.83;0.70;;;8.90;99.90;;;;;;5040482;28;20073;-80
2023/03/28 13:10:31;;;;;;;1.27;0.50;;;8.90;99.90;;;;;;5084298;28;20058;-81
2023/03/28 13:13:19;;;;;;;1.05;0.50;;;8.90;99.90;;;;;;5068590;28;20451;-80
2023/03/28 13:16:05;;;;;;;1.25;0.65;;;8.90;99.90;;;;;;5052686;28;20044;-80
2023/03/28 13:18:33;;;;;;;1.05;0.50;;;8.80;99.90;;;;;;5079038;28;20697;-80
2023/03/28 13:21:03;;;;;;;1.77;0.82;;;8.80;99.90;;;;;;5022746;28;20055;-80
2023/03/28 13:23:45;;;;;;;1.08;0.65;;;8.70;99.90;;;;;;5056238;28;20044;-80
2023/03/28 13:26:12;;;;;;;1.80;0.65;;;8.70;99.90;;;;;;5041498;28;20496;-80
2023/03/28 13:28:43;;;;;;;1.45;0.68;;;8.80;99.90;;;;;;5053341;28;20050;-80